Delta Virtual Airport Information Service

Provo Municipal Airport

ICAO: KPVU Country: United States
Latitude: 40.2181 Longitude: -111.722
Latest Arrival : AAY167 (KIWA-KPVU) Latest Departure : AAY673 (KPVU-KIWA)


WX CaptureLIVE
Data provided by noaa.gov | Fetched at 11:05:41

METAR : KPVU 231656Z VRB04KT 10SM SCT100 BKN200 02/M03 A2990 RMK AO2 SLP144 T00171033

TAF : KPVU 231140Z 2312/2412 14003KT P6SM FEW100 SCT120 FM232100 30008KT P6SM VCSH BKN040 OVC070 FM240500 32007KT P6SM BKN060


Runway Data for KPVU
Data provided by openaviationdata.com

Runway ID Mag Var Hdg Length Elevation Surface ILS Freq ILS Id ILS Slope
13 15 130° 8599 ft 4496 ft Asphalt 110.3 IPVU 3
18 15 176° 6617 ft 4496 ft Asphalt -- -- --
31 15 310° 8599 ft 4496 ft Asphalt -- -- --
36 15 356° 6617 ft 4496 ft Asphalt -- -- --

Provo Municipal Airport, United States
Use only for reference purposes



Not for navigational purposes.